KBOK/BOK METAR and TAF weather

Enter ICAO airport designator
Station Type Date Time Source
KBOK METAR 2019/08/19 21:56 UTC NOAA

KBOK 192156Z AUTO 21003KT 10SM CLR 16/12 A3000 RMK AO2 SLP157 T01610122


Station Type Date Time Source
KBOK Decoded METAR 2019/08/19 21:56 UTC NOAA

Brookings, Brookings Airport, OR, United States (KBOK) 42-04-28N 124-17-24W
Aug 19, 2019 - 05:56 PM EDT / 2019.08.19 2156 UTC
Wind: from the SSW (210 degrees) at 3 MPH (3 KT):0
Visibility: 10 mile(s):0
Sky conditions: clear
Temperature: 61.0 F (16.1 C)
Dew Point: 54.0 F (12.2 C)
Relative Humidity: 77%
Pressure (altimeter): 30 in. Hg (1015 hPa)
ob: KBOK 192156Z AUTO 21003KT 10SM CLR 16/12 A3000 RMK AO2 SLP157 T01610122
cycle: 22

Station Type Date Time Source
KBOK TAF UTC NOAA

Error!

Example: see airport list